Time;durP1;ratioP1;P1;durP2;ratioP2;P2;SDS_P1;SDS_P2;PMS_P1;PMS_P2;Temp;Humidity;BMP_temperature;BMP_pressure;BME280_temperature;BME280_humidity;BME280_pressure;Samples;Min_cycle;Max_cycle;Signal;HPM_P1;HPM_P2
2021/06/22 00:00:21;;;;;;;;;;;;;;;29.14;48.45;100311.91;1629454;88;20134;-78
2021/06/22 00:02:47;;;;;;;;;;;;;;;29.11;48.47;100301.44;1629189;87;20454;-79
2021/06/22 00:05:15;;;;;;;;;;;;;;;29.08;48.46;100305.34;1629584;88;20247;-78
2021/06/22 00:07:41;;;;;;;;;;;;;;;29.06;48.43;100295.95;1629368;88;20180;-78
2021/06/22 00:10:09;;;;;;;;;;;;;;;29.14;48.09;100286.27;1629603;88;20160;-79
2021/06/22 00:12:35;;;;;;;;;;;;;;;29.08;48.05;100286.86;1629204;88;20177;-79
2021/06/22 00:15:04;;;;;;;;;;;;;;;29.09;47.82;100289.88;1629301;88;20159;-79
2021/06/22 00:17:29;;;;;;;;;;;;;;;29.06;47.72;100280.23;1628406;88;20128;-79
2021/06/22 00:19:56;;;;;;;;;;;;;;;28.96;47.70;100276.72;1629126;88;20232;-79
2021/06/22 00:22:22;;;;;;;;;;;;;;;28.88;47.69;100269.01;1629383;88;20177;-79
2021/06/22 00:24:48;;;;;;;;;;;;;;;28.82;47.68;100266.28;1629287;88;20153;-78
2021/06/22 00:27:15;;;;;;;;;;;;;;;28.79;47.61;100264.64;1629137;88;20378;-77
2021/06/22 00:29:48;;;;;;;;;;;;;;;28.76;47.56;100256.41;1629169;88;20188;-77
2021/06/22 00:32:12;;;;;;;;;;;;;;;28.72;47.44;100251.19;1629130;88;20190;-77
2021/06/22 00:34:38;;;;;;;;;;;;;;;28.69;47.29;100255.88;1602457;88;20223;-77
2021/06/22 00:37:05;;;;;;;;;;;;;;;28.87;46.84;100250.83;1629353;88;20149;-77
2021/06/22 00:39:30;;;;;;;;;;;;;;;28.69;46.85;100250.92;1629140;88;20223;-76
2021/06/22 00:41:56;;;;;;;;;;;;;;;28.64;46.47;100242.12;1629468;87;20179;-77
2021/06/22 00:44:23;;;;;;;;;;;;;;;28.61;46.30;100245.44;1629146;88;20157;-77
2021/06/22 00:46:49;;;;;;;;;;;;;;;28.59;45.94;100242.16;1629358;88;20141;-77
2021/06/22 00:49:15;;;;;;;;;;;;;;;28.57;45.90;100238.88;1602394;88;20438;-77
2021/06/22 00:51:45;;;;;;;;;;;;;;;28.57;45.74;100234.73;1629324;88;20192;-77
2021/06/22 00:54:11;;;;;;;;;;;;;;;28.53;45.67;100233.09;1629141;87;20225;-76
2021/06/22 00:56:41;;;;;;;;;;;;;;;28.51;45.79;100224.83;1629393;87;20153;-77
2021/06/22 00:59:07;;;;;;;;;;;;;;;28.48;45.79;100221.25;1629202;88;20142;-76
2021/06/22 01:01:34;;;;;;;;;;;;;;;28.48;45.68;100215.73;1629157;87;20434;-77
2021/06/22 01:04:00;;;;;;;;;;;;;;;28.46;45.55;100212.45;1604110;88;20153;-78
2021/06/22 01:06:26;;;;;;;;;;;;;;;28.46;45.40;100213.83;1629543;87;20138;-78
2021/06/22 01:09:00;;;;;;;;;;;;;;;28.43;45.42;100215.21;1622440;88;20141;-78
2021/06/22 01:11:26;;;;;;;;;;;;;;;28.41;45.44;100216.06;1629606;88;20169;-78
2021/06/22 01:13:53;;;;;;;;;;;;;;;28.38;45.64;100218.55;1629693;88;20399;-79
2021/06/22 01:16:25;;;;;;;;;;;;;;;28.35;45.85;100208.12;1635914;86;20448;-79
2021/06/22 01:19:00;;;;;;;;;;;;;;;28.32;46.06;100206.15;1636417;87;20197;-79
2021/06/22 01:21:29;;;;;;;;;;;;;;;28.30;46.23;100195.98;1603605;88;20144;-79
2021/06/22 01:24:18;;;;;;;;;;;;;;;28.30;46.45;100200.11;1626903;88;20458;-80
2021/06/22 01:26:49;;;;;;;;;;;;;;;28.28;46.55;100200.92;1629948;86;20137;-79
2021/06/22 01:29:15;;;;;;;;;;;;;;;28.24;46.52;100202.59;1640883;87;20144;-78
2021/06/22 01:31:42;;;;;;;;;;;;;;;28.23;46.47;100205.64;1652092;87;20149;-78
2021/06/22 01:34:09;;;;;;;;;;;;;;;28.23;46.38;100213.34;1652600;87;20179;-78
2021/06/22 01:36:36;;;;;;;;;;;;;;;28.21;46.31;100223.84;1652017;87;20372;-78
2021/06/22 01:39:04;;;;;;;;;;;;;;;28.22;45.98;100224.09;1652533;87;20147;-78
2021/06/22 01:41:30;;;;;;;;;;;;;;;28.23;45.67;100231.25;1649024;87;20499;-78
2021/06/22 01:43:58;;;;;;;;;;;;;;;28.26;45.57;100238.96;1650595;87;20186;-78
2021/06/22 01:46:25;;;;;;;;;;;;;;;28.24;45.63;100243.91;1645450;87;20178;-77
2021/06/22 01:48:52;;;;;;;;;;;;;;;28.23;45.79;100249.70;1612965;88;20200;-78
2021/06/22 01:51:18;;;;;;;;;;;;;;;28.37;45.41;100240.33;1636918;87;20257;-78
2021/06/22 01:53:58;;;;;;;;;;;;;;;28.23;45.52;100249.16;1643533;86;20140;-77
2021/06/22 01:56:26;;;;;;;;;;;;;;;28.22;45.26;100259.91;1627708;88;20166;-77
2021/06/22 01:58:53;;;;;;;;;;;;;;;28.20;45.19;100260.72;1601898;88;20162;-78
2021/06/22 02:01:24;;;;;;;;;;;;;;;28.21;45.26;100261.57;1633776;87;20143;-78
2021/06/22 02:04:01;;;;;;;;;;;;;;;28.23;45.42;100268.44;1650980;87;20350;-78
2021/06/22 02:06:29;;;;;;;;;;;;;;;28.37;45.31;100259.61;1652175;86;20152;-78
2021/06/22 02:09:02;;;;;;;;;;;;;;;28.27;45.56;100253.55;1648676;87;20227;-78
2021/06/22 02:11:28;;;;;;;;;;;;;;;28.26;45.29;100264.30;1651852;87;20155;-78
2021/06/22 02:13:55;;;;;;;;;;;;;;;28.24;45.00;100254.92;1650680;87;20203;-78
2021/06/22 02:16:23;;;;;;;;;;;;;;;28.23;44.72;100247.77;1650529;86;20199;-78
2021/06/22 02:18:51;;;;;;;;;;;;;;;28.23;44.57;100250.53;1650497;87;20207;-79
2021/06/22 02:21:17;;;;;;;;;;;;;;;28.21;44.39;100248.62;1650975;86;20170;-78
2021/06/22 02:23:44;;;;;;;;;;;;;;;28.21;44.43;100236.23;1647119;86;20184;-78
2021/06/22 02:26:12;;;;;;;;;;;;;;;28.22;44.36;100232.36;1648408;87;20499;-79
2021/06/22 02:28:38;;;;;;;;;;;;;;;28.21;44.35;100221.08;1648776;87;20179;-78
2021/06/22 02:31:06;;;;;;;;;;;;;;;28.23;44.47;100223.54;1664380;85;20172;-79
2021/06/22 02:33:33;;;;;;;;;;;;;;;28.25;44.37;100225.45;1664969;86;20181;-78
2021/06/22 02:35:59;;;;;;;;;;;;;;;28.27;44.20;100223.25;1646497;86;20416;-78
2021/06/22 02:38:27;;;;;;;;;;;;;;;28.27;44.19;100214.44;1640850;87;20582;-78
2021/06/22 02:40:55;;;;;;;;;;;;;;;28.26;43.83;100215.55;1650579;87;20467;-78
2021/06/22 02:43:23;;;;;;;;;;;;;;;28.26;43.46;100223.81;1649879;87;20160;-79
2021/06/22 02:45:50;;;;;;;;;;;;;;;28.24;43.04;100210.03;1651424;87;20151;-79
2021/06/22 02:48:18;;;;;;;;;;;;;;;28.24;42.79;100212.79;1650199;87;20176;-79
2021/06/22 02:50:44;;;;;;;;;;;;;;;28.20;42.66;100215.28;1651438;86;20150;-78
2021/06/22 02:53:11;;;;;;;;;;;;;;;28.20;42.60;100215.28;1651613;87;20168;-79
2021/06/22 02:55:38;;;;;;;;;;;;;;;28.18;42.70;100222.19;1651516;86;20433;-78
2021/06/22 02:58:06;;;;;;;;;;;;;;;28.17;42.72;100232.38;1651568;87;20421;-79
2021/06/22 03:00:34;;;;;;;;;;;;;;;28.15;42.78;100230.44;1651513;86;20140;-79
2021/06/22 03:03:02;;;;;;;;;;;;;;;28.16;42.71;100240.37;1650963;87;20150;-80
2021/06/22 03:05:29;;;;;;;;;;;;;;;28.16;42.73;100232.64;1651541;86;20684;-79
2021/06/22 03:07:56;;;;;;;;;;;;;;;28.16;42.75;100242.28;1627811;87;20172;-79
2021/06/22 03:10:23;;;;;;;;;;;;;;;28.14;42.68;100241.75;1651048;87;20186;-79
2021/06/22 03:12:50;;;;;;;;;;;;;;;28.43;42.23;100238.62;1651010;87;20437;-78
2021/06/22 03:15:19;;;;;;;;;;;;;;;28.17;42.59;100257.17;1650119;87;20128;-78
2021/06/22 03:17:47;;;;;;;;;;;;;;;28.24;42.42;100257.68;1651600;86;20175;-79
2021/06/22 03:20:13;;;;;;;;;;;;;;;28.17;42.42;100254.97;1651586;87;20151;-78
2021/06/22 03:22:40;;;;;;;;;;;;;;;28.14;42.54;100250.83;1650389;87;20186;-79
2021/06/22 03:25:09;;;;;;;;;;;;;;;28.14;42.34;100241.20;1651562;87;20143;-79
2021/06/22 03:27:35;;;;;;;;;;;;;;;28.12;42.25;100246.17;1627190;87;20139;-79
2021/06/22 03:30:06;;;;;;;;;;;;;;;28.12;42.27;100238.47;1650072;86;20160;-78
2021/06/22 03:32:31;;;;;;;;;;;;;;;28.09;41.96;100238.45;1664130;85;20186;-79
2021/06/22 03:34:58;;;;;;;;;;;;;;;28.07;41.97;100229.67;1664168;86;20213;-79
2021/06/22 03:37:24;;;;;;;;;;;;;;;28.06;42.00;100226.06;1664243;85;20178;-79
2021/06/22 03:39:51;;;;;;;;;;;;;;;28.08;42.15;100222.23;1664292;85;20184;-78
2021/06/22 03:42:19;;;;;;;;;;;;;;;28.10;42.00;100225.52;1664470;86;20141;-78
2021/06/22 03:44:45;;;;;;;;;;;;;;;28.07;42.21;100226.91;1663247;85;20319;-78
2021/06/22 03:47:13;;;;;;;;;;;;;;;28.08;42.24;100232.69;1666907;85;20139;-79
2021/06/22 03:49:39;;;;;;;;;;;;;;;28.08;42.08;100227.18;1624533;88;20216;-79
2021/06/22 03:52:07;;;;;;;;;;;;;;;28.08;41.93;100235.99;1650174;87;20171;-79
2021/06/22 03:54:33;;;;;;;;;;;;;;;28.05;42.07;100247.83;1656152;86;20194;-78
2021/06/22 03:57:00;;;;;;;;;;;;;;;28.06;41.94;100270.12;1650212;87;20186;-78
2021/06/22 03:59:44;;;;;;;;;;;;;;;28.07;41.68;100275.10;1650552;86;20180;-79
2021/06/22 04:02:10;;;;;;;;;;;;;;;28.08;41.86;100262.16;1626368;87;20208;-78
2021/06/22 04:04:36;;;;;;;;;;;;;;;28.07;41.96;100279.23;1649897;87;20122;-78
2021/06/22 04:07:05;;;;;;;;;;;;;;;28.09;42.10;100267.37;1659646;86;20210;-79
2021/06/22 04:09:33;;;;;;;;;;;;;;;28.11;41.91;100261.02;1663236;85;20189;-77
2021/06/22 04:11:59;;;;;;;;;;;;;;;28.09;41.76;100260.48;1635401;87;20432;-78
2021/06/22 04:14:25;;;;;;;;;;;;;;;28.10;41.47;100251.67;1649969;87;20162;-79
2021/06/22 04:16:51;;;;;;;;;;;;;;;28.09;41.65;100242.59;1654199;85;20745;-78
2021/06/22 04:19:17;;;;;;;;;;;;;;;28.10;41.93;100234.59;1660883;85;20192;-78
2021/06/22 04:21:46;;;;;;;;;;;;;;;28.12;42.20;100220.56;1660952;85;21174;-79
2021/06/22 04:24:29;;;;;;;;;;;;;;;28.12;42.21;100209.55;1645157;86;20176;-77
2021/06/22 04:26:57;;;;;;;;;;;;;;;28.12;42.42;100212.30;1649074;87;20175;-79
2021/06/22 04:29:23;;;;;;;;;;;;;;;28.12;42.38;100220.56;1648872;86;20695;-78
2021/06/22 04:31:49;;;;;;;;;;;;;;;28.11;42.24;100229.35;1649729;86;20154;-77
2021/06/22 04:34:15;;;;;;;;;;;;;;;28.11;42.19;100238.98;1650519;86;20146;-78
2021/06/22 04:36:41;;;;;;;;;;;;;;;28.10;42.16;100248.36;1651825;86;20562;-78
2021/06/22 04:39:07;;;;;;;;;;;;;;;28.11;42.21;100263.77;1650928;86;20742;-77
2021/06/22 04:41:33;;;;;;;;;;;;;;;28.12;42.26;100279.22;1652063;86;20253;-78
2021/06/22 04:43:59;;;;;;;;;;;;;;;28.10;42.31;100274.52;1651088;85;20200;-78
2021/06/22 04:46:25;;;;;;;;;;;;;;;28.11;42.33;100290.48;1648561;86;20684;-78
2021/06/22 04:48:51;;;;;;;;;;;;;;;28.10;42.46;100280.58;1651706;85;20289;-78
2021/06/22 04:51:17;;;;;;;;;;;;;;;28.09;42.50;100272.88;1654746;86;20176;-77
2021/06/22 04:53:43;;;;;;;;;;;;;;;28.08;42.59;100286.38;1652033;86;20286;-79
2021/06/22 04:56:09;;;;;;;;;;;;;;;28.09;42.67;100287.20;1653408;85;20179;-77
2021/06/22 04:58:35;;;;;;;;;;;;;;;28.08;42.77;100271.23;1660835;84;20348;-79
2021/06/22 05:01:03;;;;;;;;;;;;;;;28.08;42.64;100292.45;1652338;85;20498;-79
2021/06/22 05:03:30;;;;;;;;;;;;;;;28.07;42.73;100294.37;1652291;86;20146;-79
2021/06/22 05:05:56;;;;;;;;;;;;;;;28.09;42.82;100292.71;1655815;85;20440;-78
2021/06/22 05:08:22;;;;;;;;;;;;;;;28.09;42.72;100272.88;1651798;85;20207;-77
2021/06/22 05:10:53;;;;;;;;;;;;;;;28.08;42.44;100281.43;1650781;85;20211;-80
2021/06/22 05:13:20;;;;;;;;;;;;;;;28.10;42.52;100284.16;1654537;85;20169;-80
2021/06/22 05:15:49;;;;;;;;;;;;;;;28.09;42.53;100267.93;1633577;85;20248;-79
2021/06/22 05:18:15;;;;;;;;;;;;;;;28.12;42.95;100274.27;1627621;87;20174;-79
2021/06/22 05:20:41;;;;;;;;;;;;;;;28.13;42.94;100275.91;1640418;86;20152;-77
2021/06/22 05:23:07;;;;;;;;;;;;;;;28.14;42.79;100254.96;1650860;85;20161;-77
2021/06/22 05:25:33;;;;;;;;;;;;;;;28.20;42.66;100252.45;1624036;85;20172;-79
2021/06/22 05:27:59;;;;;;;;;;;;;;;28.57;42.03;100255.41;1629466;87;20161;-77
2021/06/22 05:30:25;;;;;;;;;;;;;;;28.33;42.61;100257.37;1625158;87;20206;-78
2021/06/22 05:32:51;;;;;;;;;;;;;;;28.35;42.93;100249.44;1658482;85;20223;-79
2021/06/22 05:35:18;;;;;;;;;;;;;;;28.40;42.83;100257.67;1642877;85;20159;-78
2021/06/22 05:37:44;;;;;;;;;;;;;;;28.44;42.78;100251.88;1644525;85;20276;-78
2021/06/22 05:40:12;;;;;;;;;;;;;;;28.48;42.53;100241.91;1645153;85;20155;-78
2021/06/22 05:42:38;;;;;;;;;;;;;;;28.54;42.48;100248.52;1647789;85;20243;-78
2021/06/22 05:45:05;;;;;;;;;;;;;;;28.61;42.02;100254.27;1617540;87;20192;-79
2021/06/22 05:47:32;;;;;;;;;;;;;;;28.67;41.91;100258.66;1621303;87;20186;-79
2021/06/22 05:49:58;;;;;;;;;;;;;;;28.73;41.86;100259.72;1619015;87;20601;-80
2021/06/22 05:52:25;;;;;;;;;;;;;;;28.80;41.97;100262.18;1621670;86;20157;-79
2021/06/22 05:54:51;;;;;;;;;;;;;;;28.87;41.39;100265.98;1620198;87;20217;-79
2021/06/22 05:57:18;;;;;;;;;;;;;;;28.92;41.98;100266.77;1620951;87;20763;-80
2021/06/22 05:59:44;;;;;;;;;;;;;;;28.99;42.46;100263.19;1621050;86;20159;-78
2021/06/22 06:02:10;;;;;;;;;;;;;;;29.07;42.18;100270.05;1619487;86;20406;-79
2021/06/22 06:04:37;;;;;;;;;;;;;;;29.16;41.84;100273.00;1632887;86;20149;-80
2021/06/22 06:07:03;;;;;;;;;;;;;;;29.24;41.87;100264.94;1621427;87;20180;-80
2021/06/22 06:09:31;;;;;;;;;;;;;;;29.33;41.51;100267.91;1622206;87;20278;-80
2021/06/22 06:11:57;;;;;;;;;;;;;;;29.43;41.30;100267.00;1622692;87;20145;-79
2021/06/22 06:14:23;;;;;;;;;;;;;;;29.50;41.53;100265.58;1648860;85;20179;-78
2021/06/22 06:16:50;;;;;;;;;;;;;;;29.59;41.77;100267.19;1637423;86;20504;-78
2021/06/22 06:19:18;;;;;;;;;;;;;;;29.69;41.85;100267.09;1649896;85;20218;-79
2021/06/22 06:21:57;;;;;;;;;;;;;;;29.78;42.07;100264.53;1622336;87;20161;-79
2021/06/22 06:24:24;;;;;;;;;;;;;;;29.87;41.67;100264.16;1646771;85;20175;-80
2021/06/22 06:27:04;;;;;;;;;;;;;;;29.97;41.03;100266.81;1618532;85;20194;-79
2021/06/22 06:29:46;;;;;;;;;;;;;;;30.07;40.63;100274.20;1626012;85;20186;-79
2021/06/22 06:32:06;;;;;;;;;;;;;;;30.21;39.91;100272.97;1598517;87;20223;-79
2021/06/22 06:34:35;;;;;;;;;;;;;;;30.28;39.48;100281.72;1623883;86;20184;-78
2021/06/22 06:37:02;;;;;;;;;;;;;;;30.34;39.23;100283.30;1648982;85;20536;-79
2021/06/22 06:39:41;;;;;;;;;;;;;;;30.42;39.27;100285.98;1647785;85;20754;-78
2021/06/22 06:42:07;;;;;;;;;;;;;;;30.50;39.46;100285.33;1617542;87;20186;-79
2021/06/22 06:44:40;;;;;;;;;;;;;;;30.59;39.46;100286.33;1622410;87;20186;-79
2021/06/22 06:47:06;;;;;;;;;;;;;;;30.69;39.11;100285.37;1600852;85;20200;-79
2021/06/22 06:49:36;;;;;;;;;;;;;;;30.77;38.87;100289.71;1643592;85;20244;-78
2021/06/22 06:52:03;;;;;;;;;;;;;;;30.83;38.39;100287.13;1643088;85;20175;-78
2021/06/22 06:54:32;;;;;;;;;;;;;;;30.94;38.00;100281.48;1636784;85;20161;-78
2021/06/22 06:57:01;;;;;;;;;;;;;;;31.02;37.55;100286.32;1644195;85;20216;-78
2021/06/22 06:59:33;;;;;;;;;;;;;;;31.05;37.27;100282.41;1642922;85;20917;-78
2021/06/22 07:02:04;;;;;;;;;;;;;;;31.11;37.49;100278.17;1636316;85;20501;-78
2021/06/22 07:04:37;;;;;;;;;;;;;;;31.21;37.21;100286.34;1621279;86;20563;-79
2021/06/22 07:07:07;;;;;;;;;;;;;;;31.30;37.13;100288.16;1647160;85;20151;-79
2021/06/22 07:09:35;;;;;;;;;;;;;;;31.37;36.99;100303.55;1621932;85;20471;-78
2021/06/22 07:12:04;;;;;;;;;;;;;;;31.39;37.01;100301.32;1644555;85;20465;-78
2021/06/22 07:14:40;;;;;;;;;;;;;;;31.43;37.19;100300.42;1674116;83;20167;-78
2021/06/22 07:17:11;;;;;;;;;;;;;;;31.51;36.32;100314.94;1642492;85;20197;-78
2021/06/22 07:19:45;;;;;;;;;;;;;;;31.49;36.23;100310.27;1663279;84;20210;-78
2021/06/22 07:22:39;;;;;;;;;;;;;;;31.54;36.08;100305.22;1643598;85;20175;-79
2021/06/22 07:25:10;;;;;;;;;;;;;;;31.61;35.69;100313.12;1645281;85;20460;-78
2021/06/22 07:27:37;;;;;;;;;;;;;;;31.66;35.80;100328.27;1644899;85;20201;-78
2021/06/22 07:30:08;;;;;;;;;;;;;;;31.65;35.77;100324.68;1643372;85;20155;-78
2021/06/22 07:32:34;;;;;;;;;;;;;;;31.62;36.14;100321.72;1645412;85;20209;-78
2021/06/22 07:35:04;;;;;;;;;;;;;;;31.63;36.18;100324.73;1644161;85;20536;-78
2021/06/22 07:37:32;;;;;;;;;;;;;;;31.68;36.50;100325.47;1619949;85;20191;-79
2021/06/22 07:39:59;;;;;;;;;;;;;;;31.77;36.13;100332.53;1643189;85;20143;-79
2021/06/22 07:42:25;;;;;;;;;;;;;;;31.82;36.03;100330.52;1644952;85;20160;-78
2021/06/22 07:44:52;;;;;;;;;;;;;;;31.87;35.97;100337.10;1644898;85;20186;-79
2021/06/22 07:47:21;;;;;;;;;;;;;;;31.94;35.90;100340.31;1618531;85;20682;-78
2021/06/22 07:49:49;;;;;;;;;;;;;;;31.97;35.48;100340.50;1641502;85;20162;-79
2021/06/22 07:52:15;;;;;;;;;;;;;;;31.97;35.79;100348.00;1643123;85;20194;-78
2021/06/22 07:54:41;;;;;;;;;;;;;;;31.98;35.87;100348.28;1642412;85;20171;-77
2021/06/22 07:57:07;;;;;;;;;;;;;;;31.98;36.03;100334.43;1643378;85;20203;-78
2021/06/22 07:59:33;;;;;;;;;;;;;;;32.01;35.98;100340.16;1643209;85;20172;-78
2021/06/22 08:01:59;;;;;;;;;;;;;;;32.07;36.06;100340.91;1644040;85;20213;-78
2021/06/22 08:04:25;;;;;;;;;;;;;;;32.12;35.99;100331.69;1642792;85;20231;-78
2021/06/22 08:06:53;;;;;;;;;;;;;;;32.19;35.87;100345.95;1644373;85;20203;-78
2021/06/22 08:09:20;;;;;;;;;;;;;;;32.19;35.81;100344.56;1646434;85;20213;-78
2021/06/22 08:11:47;;;;;;;;;;;;;;;32.16;35.97;100337.70;1647490;85;20176;-78
2021/06/22 08:14:13;;;;;;;;;;;;;;;32.17;36.27;100341.28;1645401;85;20242;-77
2021/06/22 08:16:44;;;;;;;;;;;;;;;32.22;36.63;100342.01;1642367;85;20189;-78
2021/06/22 08:19:10;;;;;;;;;;;;;;;32.29;36.77;100339.67;1643156;85;20205;-78
2021/06/22 08:21:38;;;;;;;;;;;;;;;32.40;37.06;100338.93;1643972;85;20642;-79
2021/06/22 08:24:05;;;;;;;;;;;;;;;32.51;36.99;100343.70;1641031;85;20233;-79
2021/06/22 08:26:31;;;;;;;;;;;;;;;32.56;36.73;100343.03;1643713;85;20202;-78
2021/06/22 08:29:03;;;;;;;;;;;;;;;32.58;36.79;100333.03;1644481;85;20177;-78
2021/06/22 08:31:29;;;;;;;;;;;;;;;32.62;36.96;100332.68;1642184;85;20177;-78
2021/06/22 08:33:59;;;;;;;;;;;;;;;32.68;36.81;100332.82;1639391;85;20203;-78
2021/06/22 08:36:31;;;;;;;;;;;;;;;32.72;36.68;100343.55;1645758;85;20463;-78
2021/06/22 08:38:58;;;;;;;;;;;;;;;32.67;36.70;100331.19;1620326;85;21121;-79
2021/06/22 08:41:26;;;;;;;;;;;;;;;32.69;36.95;100332.25;1643767;85;20215;-79
2021/06/22 08:43:54;;;;;;;;;;;;;;;32.70;36.80;100329.16;1642676;85;20553;-78
2021/06/22 08:46:20;;;;;;;;;;;;;;;32.73;37.06;100326.34;1643331;85;20188;-78
2021/06/22 08:49:00;;;;;;;;;;;;;;;32.79;37.07;100335.66;1645276;85;20592;-78
2021/06/22 08:51:23;;;;;;;;;;;;;;;32.82;37.20;100337.78;1692520;79;20132;-78
2021/06/22 08:53:49;;;;;;;;;;;;;;;32.81;37.71;100333.38;1820704;77;20177;-78
2021/06/22 08:56:15;;;;;;;;;;;;;;;32.83;37.70;100331.09;1737111;81;20203;-79
2021/06/22 08:58:41;;;;;;;;;;;;;;;32.89;37.80;100329.63;1820852;77;20127;-79
2021/06/22 09:01:07;;;;;;;;;;;;;;;32.91;37.74;100332.94;1823669;77;20172;-79
2021/06/22 09:03:38;;;;;;;;;;;;;;;32.93;37.79;100344.53;1800571;78;20141;-78
2021/06/22 09:06:03;;;;;;;;;;;;;;;32.92;37.90;100342.32;1818299;78;20185;-77
2021/06/22 09:08:30;;;;;;;;;;;;;;;32.92;38.01;100346.48;1820329;77;20190;-78
2021/06/22 09:11:08;;;;;;;;;;;;;;;32.92;38.29;100352.60;1826912;77;20189;-78
2021/06/22 09:13:35;;;;;;;;;;;;;;;32.89;38.34;100351.83;1822456;77;20156;-78
2021/06/22 09:16:03;;;;;;;;;;;;;;;32.79;38.56;100348.67;1826493;77;20177;-78
2021/06/22 09:18:37;;;;;;;;;;;;;;;32.70;38.94;100359.66;1799801;77;20216;-78
2021/06/22 09:21:07;;;;;;;;;;;;;;;32.62;38.99;100356.82;1823564;77;20586;-78
2021/06/22 09:23:35;;;;;;;;;;;;;;;32.51;39.40;100369.47;1821708;77;20623;-78
2021/06/22 09:26:20;;;;;;;;;;;;;;;32.44;39.70;100361.33;1825155;77;20772;-79
2021/06/22 09:28:52;;;;;;;;;;;;;;;32.44;40.20;100369.64;1825196;77;20153;-78
2021/06/22 09:31:20;;;;;;;;;;;;;;;32.45;39.55;100369.89;1824811;77;20192;-79
2021/06/22 09:33:57;;;;;;;;;;;;;;;32.37;39.44;100372.80;1799477;78;20164;-78
2021/06/22 09:36:27;;;;;;;;;;;;;;;32.30;39.41;100380.69;1823247;77;20182;-78
2021/06/22 09:39:06;;;;;;;;;;;;;;;32.22;39.17;100378.04;1824245;77;20473;-78
2021/06/22 09:41:37;;;;;;;;;;;;;;;32.15;39.20;100378.16;1825763;77;20613;-79
2021/06/22 09:44:09;;;;;;;;;;;;;;;32.10;39.10;100365.79;1823016;77;20146;-78
2021/06/22 09:46:42;;;;;;;;;;;;;;;32.07;38.93;100363.08;1824878;77;20170;-78
2021/06/22 09:49:11;;;;;;;;;;;;;;;32.04;39.16;100371.98;1824100;77;20188;-78
2021/06/22 09:51:52;;;;;;;;;;;;;;;31.99;39.15;100367.36;1824251;77;20153;-78
2021/06/22 09:54:24;;;;;;;;;;;;;;;31.98;38.95;100364.91;1821835;77;20160;-78
2021/06/22 09:56:59;;;;;;;;;;;;;;;31.98;39.33;100362.95;1823827;77;20455;-78
2021/06/22 09:59:26;;;;;;;;;;;;;;;32.01;39.32;100370.64;1823345;77;20121;-78
2021/06/22 10:01:52;;;;;;;;;;;;;;;32.02;39.18;100361.76;1809467;78;20172;-78
2021/06/22 10:04:27;;;;;;;;;;;;;;;32.03;39.55;100357.32;1825398;77;20202;-77
2021/06/22 10:06:57;;;;;;;;;;;;;;;32.05;39.48;100357.00;1822714;76;20154;-78
2021/06/22 10:09:29;;;;;;;;;;;;;;;32.07;39.52;100363.08;1825157;77;20212;-77
2021/06/22 10:12:03;;;;;;;;;;;;;;;32.04;39.61;100365.06;1824690;77;20156;-77
2021/06/22 10:14:34;;;;;;;;;;;;;;;32.01;39.70;100372.59;1823744;77;20213;-78
2021/06/22 10:17:02;;;;;;;;;;;;;;;31.96;39.77;100365.75;1822627;77;20167;-78
2021/06/22 10:19:29;;;;;;;;;;;;;;;31.89;40.19;100356.46;1820540;77;20135;-78
2021/06/22 10:22:05;;;;;;;;;;;;;;;31.78;40.55;100366.83;1819920;77;20164;-77
2021/06/22 10:24:43;;;;;;;;;;;;;;;31.69;40.70;100358.13;1819768;77;20626;-80
2021/06/22 10:27:10;;;;;;;;;;;;;;;31.64;40.96;100354.88;1820423;77;20167;-77
2021/06/22 10:29:39;;;;;;;;;;;;;;;31.66;41.13;100359.58;1819491;77;20215;-76
2021/06/22 10:32:05;;;;;;;;;;;;;;;31.65;41.34;100353.75;1803866;77;20169;-76
2021/06/22 10:34:32;;;;;;;;;;;;;;;31.64;41.57;100360.98;1825614;77;20137;-76
2021/06/22 10:37:28;;;;;;;;;;;;;;;31.60;41.66;100357.99;1825466;77;20173;-77
2021/06/22 10:40:06;;;;;;;;;;;;;;;31.56;41.21;100355.56;1829262;77;20196;-77
2021/06/22 10:42:48;;;;;;;;;;;;;;;31.51;41.15;100350.92;1817147;77;20448;-77
2021/06/22 10:45:15;;;;;;;;;;;;;;;31.50;41.52;100353.44;1767399;79;20499;-77
2021/06/22 10:47:42;;;;;;;;;;;;;;;31.49;41.99;100349.03;1792600;78;20637;-77
2021/06/22 10:50:44;;;;;;;;;;;;;;;31.51;42.15;100355.64;1794141;78;20207;-78
2021/06/22 10:53:16;;;;;;;;;;;;;;;31.49;42.11;100360.11;1801840;78;21041;-77
2021/06/22 10:56:04;;;;;;;;;;;;;;;31.47;42.15;100364.28;1788825;78;20547;-77
2021/06/22 10:58:32;;;;;;;;;;;;;;;31.44;42.17;100374.59;1757112;78;21090;-76
2021/06/22 11:01:07;;;;;;;;;;;;;;;31.42;42.51;100372.67;1796088;78;20187;-78
2021/06/22 11:03:35;;;;;;;;;;;;;;;31.45;42.56;100370.70;1826319;77;20141;-76
2021/06/22 11:06:12;;;;;;;;;;;;;;;31.49;41.88;100375.33;1774019;78;20145;-78
2021/06/22 11:08:41;;;;;;;;;;;;;;;31.50;41.56;100374.20;1797344;78;20174;-78
2021/06/22 11:11:11;;;;;;;;;;;;;;;31.52;41.46;100380.81;1824447;77;20181;-77
2021/06/22 11:13:46;;;;;;;;;;;;;;;31.52;41.25;100378.05;1802372;78;20175;-79
2021/06/22 11:16:21;;;;;;;;;;;;;;;31.50;41.28;100383.08;1787239;78;20524;-77
2021/06/22 11:18:55;;;;;;;;;;;;;;;31.47;40.73;100374.80;1792690;78;20176;-77
2021/06/22 11:21:27;;;;;;;;;;;;;;;31.45;40.89;100379.00;1822191;76;20620;-76
2021/06/22 11:23:57;;;;;;;;;;;;;;;31.44;40.64;100378.75;1823711;77;20185;-77
2021/06/22 11:26:25;;;;;;;;;;;;;;;31.40;40.68;100378.52;1825177;77;20565;-76
2021/06/22 11:28:56;;;;;;;;;;;;;;;31.42;41.01;100369.91;1800040;78;20525;-76
2021/06/22 11:31:42;;;;;;;;;;;;;;;31.44;41.38;100369.88;1823635;77;20175;-76
2021/06/22 11:34:18;;;;;;;;;;;;;;;31.51;41.50;100369.48;1827262;77;20185;-77
2021/06/22 11:36:48;;;;;;;;;;;;;;;31.55;41.43;100366.38;1826409;78;20623;-77
2021/06/22 11:39:27;;;;;;;;;;;;;;;31.56;41.76;100371.61;1829891;77;20152;-77
2021/06/22 11:42:12;;;;;;;;;;;;;;;31.57;40.55;100364.97;1831493;77;20163;-78
2021/06/22 11:44:43;;;;;;;;;;;;;;;31.56;39.33;100368.02;1804752;78;20160;-83
2021/06/22 11:47:28;;;;;;;;;;;;;;;31.53;38.45;100371.41;1827220;77;20612;-80
2021/06/22 11:50:00;;;;;;;;;;;;;;;31.51;38.40;100368.92;1808437;77;20546;-79
2021/06/22 11:52:34;;;;;;;;;;;;;;;31.51;38.67;100369.48;1826126;77;20184;-77
2021/06/22 11:55:16;;;;;;;;;;;;;;;31.50;38.64;100385.28;1824214;77;20170;-77
2021/06/22 11:57:49;;;;;;;;;;;;;;;31.51;38.44;100379.17;1819994;77;20153;-76
2021/06/22 12:00:23;;;;;;;;;;;;;;;31.50;38.21;100373.39;1824824;77;20192;-77
2021/06/22 12:02:56;;;;;;;;;;;;;;;31.49;38.48;100364.83;1825192;77;20187;-77
2021/06/22 12:05:26;;;;;;;;;;;;;;;31.52;39.10;100370.59;1825866;77;20234;-77
2021/06/22 12:08:00;;;;;;;;;;;;;;;31.56;39.57;100370.79;1824097;77;20184;-77
2021/06/22 12:10:49;;;;;;;;;;;;;;;31.60;39.58;100371.84;1827476;77;20289;-78
2021/06/22 12:13:33;;;;;;;;;;;;;;;31.61;39.48;100371.27;1826731;77;20100;-78
2021/06/22 12:16:14;;;;;;;;;;;;;;;31.63;39.11;100374.58;1826309;77;20174;-75
2021/06/22 12:18:40;;;;;;;;;;;;;;;31.64;39.06;100375.66;1799966;77;20240;-77
2021/06/22 12:21:06;;;;;;;;;;;;;;;31.63;39.48;100365.70;1826141;77;20162;-78
2021/06/22 12:23:32;;;;;;;;;;;;;;;31.65;39.90;100366.78;1775539;78;20147;-77
2021/06/22 12:25:58;;;;;;;;;;;;;;;31.66;40.02;100370.66;1824461;77;20143;-75
2021/06/22 12:28:28;;;;;;;;;;;;;;;31.68;40.03;100373.93;1824648;77;20170;-77
2021/06/22 12:30:58;;;;;;;;;;;;;;;31.69;39.70;100367.83;1828148;77;20147;-76
2021/06/22 12:33:25;;;;;;;;;;;;;;;31.68;39.91;100385.57;1827091;77;20435;-76
2021/06/22 12:35:52;;;;;;;;;;;;;;;31.62;40.05;100375.71;1825283;77;20188;-75
2021/06/22 12:38:19;;;;;;;;;;;;;;;31.55;40.29;100361.66;1826504;78;20243;-75
2021/06/22 12:40:48;;;;;;;;;;;;;;;31.51;40.74;100364.77;1828011;77;21229;-76
2021/06/22 12:43:17;;;;;;;;;;;;;;;31.48;41.04;100357.65;1827981;77;20153;-76
2021/06/22 12:45:46;;;;;;;;;;;;;;;31.48;40.94;100367.34;1831153;77;20155;-76